Blackwell, United Kingdom
Current Conditions -  °F | °C
As of 7:20 AM on Sunday 26 Oct 2014 (Local Time) from EGNX Reporting Station
Broken Clouds Broken Clouds  
Wind Chill: 54°   Ceiling: 3400
Heat Index: 54°   Visibility: 6mi
Dew Point: 48°   Wind: 18mph
Humidity: 82%   Direction: 210°SSW
Pressure: 30"   Gusts: NA
Location:  53.12°N, 1.33°W
Report Text: EGNX 260620Z 21016KT 9999 BKN034 12/09 Q1016
Loading
Personal Weather Stations






























Interactive Weather Map
Tropical Storm Tracking
New forecast layout! Learn more

10-Day Weather Forecast

Advertisements
Track Severe Weather on mobile